createdAt,value
2016-04-23T00:02:02.082Z,6
2016-04-23T00:05:09.246Z,6.1
2016-04-23T00:08:11.238Z,6.1
2016-04-23T00:11:23.387Z,6.1
2016-04-23T00:14:35.535Z,6.1
2016-04-23T00:17:47.684Z,6.1
2016-04-23T00:21:04.820Z,6.1
2016-04-23T00:24:06.969Z,6.1
2016-04-23T00:27:18.852Z,6.1
2016-04-23T00:30:30.953Z,6.1
2016-04-23T00:33:43.008Z,6
2016-04-23T00:36:55.032Z,6
2016-04-23T00:40:10.012Z,6
2016-04-23T00:43:12.223Z,6
2016-04-23T00:46:24.356Z,5.9
2016-04-23T00:49:36.364Z,5.8
2016-04-23T00:52:48.373Z,5.8
2016-04-23T00:56:05.336Z,5.7
2016-04-23T00:59:07.422Z,5.7
2016-04-23T01:02:19.493Z,5.6
2016-04-23T01:05:31.689Z,5.6
2016-04-23T01:08:43.869Z,5.6
2016-04-23T01:12:00.942Z,5.6
2016-04-23T01:15:07.996Z,5.5
2016-04-23T01:18:10.192Z,5.5
2016-04-23T01:21:22.326Z,5.5
2016-04-23T01:24:32.115Z,5.5
2016-04-23T01:27:46.153Z,5.4
2016-04-23T01:31:02.883Z,5.4
2016-04-23T01:34:05.110Z,5.5
2016-04-23T01:37:17.165Z,5.5
2016-04-23T01:40:27.360Z,5.5
2016-04-23T01:43:41.384Z,5.5
2016-04-23T01:46:53.596Z,5.4
2016-04-23T01:50:05.340Z,5.4
2016-04-23T01:53:17.381Z,5.3
2016-04-23T01:56:26.248Z,5.3
2016-04-23T01:59:38.442Z,5.3
2016-04-23T02:02:46.966Z,5.3
2016-04-23T02:06:04.055Z,5.3
2016-04-23T02:09:06.220Z,5.3
2016-04-23T02:12:16.182Z,5.2
2016-04-23T02:15:28.189Z,5.1
2016-04-23T02:18:40.478Z,5.1
2016-04-23T02:21:51.752Z,5
2016-04-23T02:25:07.038Z,5
2016-04-23T02:28:09.031Z,5
2016-04-23T02:31:21.227Z,4.9
2016-04-23T02:34:33.390Z,4.9
2016-04-23T02:37:45.493Z,4.9
2016-04-23T02:41:02.331Z,4.8
2016-04-23T02:44:09.262Z,4.7
2016-04-23T02:47:11.082Z,4.7
2016-04-23T02:50:22.995Z,4.7
2016-04-23T02:53:34.832Z,4.7
2016-04-23T02:56:46.716Z,4.7
2016-04-23T03:00:03.554Z,4.7
2016-04-23T03:03:05.735Z,4.6
2016-04-23T03:06:17.461Z,4.6
2016-04-23T03:09:29.172Z,4.5
2016-04-23T03:12:37.789Z,4.5
2016-04-23T03:15:49.859Z,4.5
2016-04-23T03:19:06.403Z,4.4
2016-04-23T03:22:08.379Z,4.4
2016-04-23T03:25:20.308Z,4.4
2016-04-23T03:28:32.364Z,4.3
2016-04-23T03:31:44.372Z,4.3
2016-04-23T03:35:01.318Z,4.3
2016-04-23T03:38:08.172Z,4.3
2016-04-23T03:41:10.242Z,4.3
2016-04-23T03:44:20.282Z,4.3
2016-04-23T03:47:34.165Z,4.3
2016-04-23T03:50:45.939Z,4.3
2016-04-23T03:54:02.634Z,4.3
2016-04-23T03:57:09.524Z,4.3
2016-04-23T04:00:11.375Z,4.3
2016-04-23T04:03:23.149Z,4.3
2016-04-23T04:06:35.173Z,4.3
2016-04-23T04:09:47.181Z,4.3
2016-04-23T04:13:04.095Z,4.2
2016-04-23T04:16:06.028Z,4.2
2016-04-23T04:19:17.786Z,4.2
2016-04-23T04:22:27.716Z,4.2
2016-04-23T04:25:41.240Z,4.2
2016-04-23T04:28:53.045Z,4.3
2016-04-23T04:32:09.665Z,4.3
2016-04-23T04:35:11.329Z,4.3
2016-04-23T04:38:22.931Z,4.3
2016-04-23T04:41:34.408Z,4.3
2016-04-23T04:44:46.072Z,4.3
2016-04-23T04:48:02.128Z,4.3
2016-04-23T04:51:08.966Z,4.4
2016-04-23T04:54:10.740Z,4.4
2016-04-23T04:57:22.388Z,4.4
2016-04-23T05:00:34.115Z,4.4
2016-04-23T05:03:45.780Z,4.4
2016-04-23T05:06:54.115Z,4.5
2016-04-23T05:10:05.873Z,4.6
2016-04-23T05:13:17.681Z,4.7
2016-04-23T05:16:29.533Z,4.8
2016-04-23T05:19:41.511Z,4.9
2016-04-23T05:22:53.065Z,4.8
2016-04-23T05:26:09.747Z,4.9
2016-04-23T05:29:11.662Z,5
2016-04-23T05:32:23.545Z,5.1
2016-04-23T05:35:35.256Z,5.2
2016-04-23T05:38:42.420Z,5.2
2016-04-23T05:42:01.023Z,5.2
2016-04-23T05:45:08.017Z,5.5
2016-04-23T05:48:10.167Z,5.9
2016-04-23T05:51:22.144Z,6.3
2016-04-23T05:54:34.416Z,6.7
2016-04-23T05:57:44.502Z,7.2
2016-04-23T06:01:03.871Z,7.6
2016-04-23T06:04:06.159Z,7.9
2016-04-23T06:07:18.312Z,8.2
2016-04-23T06:10:30.537Z,8.4
2016-04-23T06:13:42.889Z,8.4
2016-04-23T06:16:55.226Z,8.4
2016-04-23T06:20:07.702Z,8.8
2016-04-23T06:23:20.183Z,9.1
2016-04-23T06:26:32.846Z,9.3
2016-04-23T06:29:45.574Z,9.5
2016-04-23T06:33:03.129Z,9.6
2016-04-23T06:36:06.042Z,9.9
2016-04-23T06:39:18.929Z,10
2016-04-23T06:42:31.592Z,10
2016-04-23T06:45:44.242Z,10.2
2016-04-23T06:49:02.078Z,10.3
2016-04-23T06:52:09.933Z,10.4
2016-04-23T06:55:12.612Z,10.1
2016-04-23T06:58:25.152Z,10
2016-04-23T07:01:37.957Z,10.1
2016-04-23T07:04:50.543Z,10.3
2016-04-23T07:08:08.159Z,10.3
2016-04-23T07:11:10.984Z,10.5
2016-04-23T07:14:23.757Z,10.5
2016-04-23T07:17:36.640Z,10.5
2016-04-23T07:20:49.351Z,10.7
2016-04-23T07:24:07.219Z,11
2016-04-23T07:27:09.977Z,11.2
2016-04-23T07:30:20.441Z,11.3
2016-04-23T07:33:35.449Z,11.6
2016-04-23T07:36:48.738Z,12.5
2016-04-23T07:40:06.637Z,12.6
2016-04-23T07:43:09.924Z,13.4
2016-04-23T07:46:23.058Z,13.9
2016-04-23T07:49:36.099Z,13.9
2016-04-23T07:52:49.496Z,14.7
2016-04-23T07:56:07.943Z,16.4
2016-04-23T07:59:11.506Z,17.3
2016-04-23T08:02:20.615Z,16
2016-04-23T08:05:29.767Z,15.8
2016-04-23T08:08:42.480Z,17
2016-04-23T08:11:56.019Z,17.8
2016-04-23T08:15:09.059Z,17.2
2016-04-23T08:18:21.820Z,16.6
2016-04-23T08:21:34.702Z,15.6
2016-04-23T08:24:47.241Z,14.3
2016-04-23T08:28:04.797Z,13.3
2016-04-23T08:31:07.918Z,13.4
2016-04-23T08:34:24.898Z,13.2
2016-04-23T08:37:33.281Z,12.9
2016-04-23T08:40:45.789Z,12.6
2016-04-23T08:44:03.688Z,12.2
2016-04-23T08:47:06.805Z,12.7
2016-04-23T08:50:20.488Z,15
2016-04-23T08:53:33.918Z,15.8
2016-04-23T08:56:47.193Z,16
2016-04-23T09:00:01.638Z,15.1
2016-04-23T09:03:10.146Z,15.3
2016-04-23T09:06:13.295Z,14.7
2016-04-23T09:09:25.977Z,14.5
2016-04-23T09:12:35.595Z,15.1
2016-04-23T09:15:48.869Z,15.6
2016-04-23T09:19:06.392Z,14
2016-04-23T09:22:09.541Z,14.1
2016-04-23T09:25:22.286Z,13.8
2016-04-23T09:28:35.137Z,13.8
2016-04-23T09:31:47.927Z,13.4
2016-04-23T09:35:05.685Z,12.9
2016-04-23T09:38:09.303Z,15
2016-04-23T09:41:21.423Z,17.3
2016-04-23T09:44:34.431Z,16.7
2016-04-23T09:47:47.423Z,16.5
2016-04-23T09:51:06.541Z,18.3
2016-04-23T09:54:10.439Z,18.8
2016-04-23T09:57:24.138Z,18.5
2016-04-23T10:00:37.208Z,17
2016-04-23T10:03:50.435Z,15.4
2016-04-23T10:07:05.584Z,14.3
2016-04-23T10:10:08.810Z,13.6
2016-04-23T10:13:21.693Z,13.3
2016-04-23T10:16:34.658Z,13.3
2016-04-23T10:19:47.744Z,12.9
2016-04-23T10:23:05.407Z,12.7
2016-04-23T10:26:08.513Z,12.5
2016-04-23T10:29:21.521Z,12
2016-04-23T10:32:34.016Z,11.8
2016-04-23T10:35:46.727Z,11.2
2016-04-23T10:39:04.251Z,11.1
2016-04-23T10:42:07.118Z,10.9
2016-04-23T10:45:18.079Z,10.8
2016-04-23T10:48:33.012Z,10.9
2016-04-23T10:51:46.036Z,10.8
2016-04-23T10:55:03.795Z,10.6
2016-04-23T10:58:06.864Z,10.6
2016-04-23T11:01:19.857Z,10.7
2016-04-23T11:04:32.993Z,10.5
2016-04-23T11:07:45.829Z,10.3
2016-04-23T11:11:03.602Z,10.2
2016-04-23T11:14:06.565Z,10
2016-04-23T11:17:19.478Z,10
2016-04-23T11:20:32.567Z,10.1
2016-04-23T11:23:45.262Z,9.9
2016-04-23T11:27:02.911Z,9.6
2016-04-23T11:30:10.528Z,9.4
2016-04-23T11:33:13.193Z,9.4
2016-04-23T11:36:25.829Z,9.6
2016-04-23T11:39:38.399Z,9.7
2016-04-23T11:42:51.204Z,9.9
2016-04-23T11:46:08.979Z,9.9
2016-04-23T11:49:09.643Z,9.9
2016-04-23T11:52:24.057Z,9.8
2016-04-23T11:55:36.552Z,9.6
2016-04-23T11:58:48.981Z,9.5
2016-04-23T12:02:06.678Z,9.6
2016-04-23T12:05:09.685Z,9.8
2016-04-23T12:08:22.178Z,9.8
2016-04-23T12:11:34.829Z,9.7
2016-04-23T12:14:47.103Z,9.7
2016-04-23T12:18:04.907Z,9.7
2016-04-23T12:21:07.791Z,9.6
2016-04-23T12:24:20.252Z,9.6
2016-04-23T12:27:33.029Z,9.7
2016-04-23T12:30:46.067Z,9.9
2016-04-23T12:34:03.811Z,9.9
2016-04-23T12:37:06.678Z,10
2016-04-23T12:40:19.216Z,10.1
2016-04-23T12:43:31.899Z,10
2016-04-23T12:46:44.627Z,10
2016-04-23T12:49:55.118Z,10.2
2016-04-23T12:53:06.096Z,10.4
2016-04-23T12:56:20.948Z,10.6
2016-04-23T12:59:33.661Z,10.8
2016-04-23T13:02:46.403Z,10.8
2016-04-23T13:06:04.021Z,10.8
2016-04-23T13:09:06.919Z,10.7
2016-04-23T13:12:19.442Z,10.4
2016-04-23T13:15:32.123Z,10.3
2016-04-23T13:18:44.724Z,10.4
2016-04-23T13:22:02.396Z,10.4
2016-04-23T13:25:10.092Z,10.4
2016-04-23T13:28:12.835Z,10.3
2016-04-23T13:31:25.483Z,10.4
2016-04-23T13:34:42.289Z,10.6
2016-04-23T13:37:50.877Z,10.8
2016-04-23T13:41:08.870Z,10.9
2016-04-23T13:44:11.753Z,11
2016-04-23T13:47:24.683Z,11
2016-04-23T13:50:37.410Z,11.1
2016-04-23T13:53:48.202Z,11
2016-04-23T13:57:07.632Z,10.8
2016-04-23T14:00:10.718Z,10.7
2016-04-23T14:03:23.492Z,10.5
2016-04-23T14:06:36.218Z,10.4
2016-04-23T14:09:49.089Z,10.3
2016-04-23T14:13:07.128Z,10.3
2016-04-23T14:16:10.011Z,10.2
2016-04-23T14:19:20.786Z,9.9
2016-04-23T14:22:35.964Z,9.7
2016-04-23T14:25:48.489Z,9.7
2016-04-23T14:29:06.312Z,9.8
2016-04-23T14:32:09.195Z,9.9
2016-04-23T14:35:22.141Z,10.1
2016-04-23T14:38:34.757Z,10.3
2016-04-23T14:41:46.751Z,10.4
2016-04-23T14:45:04.511Z,10.5
2016-04-23T14:48:07.566Z,10.5
2016-04-23T14:51:20.464Z,10.3
2016-04-23T14:54:33.472Z,10.1
2016-04-23T14:57:44.043Z,10
2016-04-23T15:01:01.883Z,9.9
2016-04-23T15:04:09.719Z,9.7
2016-04-23T15:07:12.742Z,9.7
2016-04-23T15:10:23.687Z,9.8
2016-04-23T15:13:36.618Z,9.9
2016-04-23T15:16:49.439Z,9.8
2016-04-23T15:20:07.950Z,9.9
2016-04-23T15:23:07.941Z,10
2016-04-23T15:26:23.325Z,10.1
2016-04-23T15:29:34.834Z,10.1
2016-04-23T15:32:47.638Z,10.2
2016-04-23T15:36:05.603Z,10.2
2016-04-23T15:39:08.548Z,10.2
2016-04-23T15:42:21.103Z,10.2
2016-04-23T15:45:33.955Z,10.1
2016-04-23T15:48:46.432Z,9.8
2016-04-23T15:52:03.974Z,9.5
2016-04-23T15:55:11.637Z,9.4
2016-04-23T15:58:14.490Z,9.3
2016-04-23T16:01:25.436Z,9.2
2016-04-23T16:04:39.755Z,9.1
2016-04-23T16:07:52.279Z,9.1
2016-04-23T16:11:09.666Z,9
2016-04-23T16:14:12.407Z,9
2016-04-23T16:17:25.119Z,9
2016-04-23T16:20:37.315Z,9
2016-04-23T16:23:49.978Z,9
2016-04-23T16:27:07.489Z,9
2016-04-23T16:30:10.232Z,9
2016-04-23T16:33:22.771Z,9.1
2016-04-23T16:36:35.498Z,9.1
2016-04-23T16:39:45.897Z,9.2
2016-04-23T16:43:03.564Z,9.2
2016-04-23T16:46:11.447Z,9.1
2016-04-23T16:49:14.304Z,9.1
2016-04-23T16:52:27.223Z,9.1
2016-04-23T16:55:39.901Z,9
2016-04-23T16:58:50.582Z,8.9
2016-04-23T17:02:10.300Z,8.8
2016-04-23T17:05:14.002Z,8.7
2016-04-23T17:08:26.075Z,8.7
2016-04-23T17:11:37.273Z,8.6
2016-04-23T17:14:50.032Z,8.6
2016-04-23T17:18:07.808Z,8.5
2016-04-23T17:21:10.988Z,8.5
2016-04-23T17:24:23.150Z,8.5
2016-04-23T17:27:35.816Z,8.5
2016-04-23T17:30:48.260Z,8.5
2016-04-23T17:34:05.772Z,8.4
2016-04-23T17:37:08.405Z,8.4
2016-04-23T17:40:21.101Z,8.3
2016-04-23T17:43:31.546Z,8.2
2016-04-23T17:46:46.320Z,8.1
2016-04-23T17:50:04.000Z,8
2016-04-23T17:53:11.588Z,7.8
2016-04-23T17:56:14.269Z,7.6
2016-04-23T17:59:27.120Z,7.4
2016-04-23T18:02:39.508Z,7.3
2016-04-23T18:05:52.063Z,7.2
2016-04-23T18:09:09.651Z,7.1
2016-04-23T18:12:12.192Z,7.1
2016-04-23T18:15:24.417Z,7
2016-04-23T18:18:36.770Z,6.8
2016-04-23T18:21:47.887Z,6.7
2016-04-23T18:25:05.208Z,6.6
2016-04-23T18:28:07.844Z,6.6
2016-04-23T18:31:20.310Z,6.5
2016-04-23T18:34:30.709Z,6.5
2016-04-23T18:37:44.998Z,6.4
2016-04-23T18:40:57.334Z,6.4
2016-04-23T18:44:07.673Z,6.4
2016-04-23T18:47:19.853Z,6.3
2016-04-23T18:50:32.408Z,6.2
2016-04-23T18:53:44.916Z,6.2
2016-04-23T18:56:57.471Z,6.1
2016-04-23T19:00:08.263Z,6
2016-04-23T19:03:20.569Z,5.9
2016-04-23T19:06:33.060Z,6
2016-04-23T19:09:45.538Z,6
2016-04-23T19:13:02.889Z,6.1
2016-04-23T19:16:10.290Z,6.1
2016-04-23T19:19:12.767Z,6.2
2016-04-23T19:22:25.197Z,6.2
2016-04-23T19:25:37.549Z,6.2
2016-04-23T19:28:49.542Z,6.2
2016-04-23T19:32:05.393Z,6.2
2016-04-23T19:35:07.964Z,6.2
2016-04-23T19:38:20.116Z,6.1
2016-04-23T19:41:32.873Z,6
2016-04-23T19:44:49.304Z,5.9
2016-04-23T19:48:02.733Z,5.8
2016-04-23T19:51:10.179Z,5.8
2016-04-23T19:54:12.580Z,5.8
2016-04-23T19:57:25.167Z,5.7
2016-04-23T20:00:37.799Z,5.7
2016-04-23T20:03:53.230Z,5.6
2016-04-23T20:07:06.722Z,5.5
2016-04-23T20:10:09.182Z,5.5
2016-04-23T20:13:19.163Z,5.4
2016-04-23T20:16:33.686Z,5.5
2016-04-23T20:19:46.179Z,5.5
2016-04-23T20:23:03.329Z,5.4
2016-04-23T20:26:10.743Z,5.3
2016-04-23T20:29:13.115Z,5.3
2016-04-23T20:32:21.595Z,5.3
2016-04-23T20:35:33.914Z,5.3
2016-04-23T20:38:46.330Z,5.3
2016-04-23T20:41:57.197Z,5.3
2016-04-23T20:45:07.252Z,5.3
2016-04-23T20:48:21.699Z,5.2
2016-04-23T20:51:34.740Z,5.2
2016-04-23T20:54:46.310Z,5.2
2016-04-23T20:58:03.599Z,5.2
2016-04-23T21:01:10.966Z,5.1
2016-04-23T21:04:11.928Z,5.1
2016-04-23T21:07:25.689Z,5.1
2016-04-23T21:10:37.900Z,5.1
2016-04-23T21:13:49.939Z,5
2016-04-23T21:20:09.596Z,4.8
2016-04-23T21:23:21.786Z,4.7
2016-04-23T21:26:34.044Z,4.6
2016-04-23T21:29:46.302Z,4.5
2016-04-23T21:33:03.653Z,4.5
2016-04-23T21:36:10.880Z,4.5
2016-04-23T21:39:13.077Z,4.4
2016-04-23T21:42:25.348Z,4.4
2016-04-23T21:45:41.521Z,4.3
2016-04-23T21:48:53.046Z,4.2
2016-04-23T21:52:07.479Z,4.2
2016-04-23T21:55:09.878Z,4.1
2016-04-23T21:58:22.254Z,4.1
2016-04-23T22:01:34.498Z,4.1
2016-04-23T22:04:43.179Z,4
2016-04-23T22:07:55.561Z,4
2016-04-23T22:11:12.664Z,3.9
2016-04-23T22:14:16.702Z,3.9
2016-04-23T22:17:25.195Z,3.9
2016-04-23T22:20:36.909Z,3.9
2016-04-23T22:23:48.761Z,3.8
2016-04-23T22:27:05.816Z,3.8
2016-04-23T22:30:07.933Z,3.7
2016-04-23T22:33:19.941Z,3.7
2016-04-23T22:36:32.609Z,3.6
2016-04-23T22:39:44.178Z,3.6
2016-04-23T22:42:56.170Z,3.5
2016-04-23T22:46:08.008Z,3.4
2016-04-23T22:49:21.608Z,3.3
2016-04-23T22:52:31.886Z,3.3
2016-04-23T22:55:44.097Z,3.3
2016-04-23T22:58:56.355Z,3.2
2016-04-23T23:02:08.285Z,3.2
2016-04-23T23:05:20.137Z,3.1
2016-04-23T23:08:32.350Z,3.1
2016-04-23T23:11:44.452Z,3
2016-04-23T23:14:56.565Z,2.9
2016-04-23T23:18:08.557Z,2.8
2016-04-23T23:21:20.598Z,2.8
2016-04-23T23:24:31.765Z,2.8
2016-04-23T23:27:43.507Z,2.8
2016-04-23T23:30:55.640Z,2.7
2016-04-23T23:34:12.945Z,2.6
2016-04-23T23:37:15.516Z,2.6
2016-04-23T23:40:26.602Z,2.6
2016-04-23T23:43:38.785Z,2.6
2016-04-23T23:46:49.418Z,2.5
2016-04-23T23:50:06.269Z,2.4
2016-04-23T23:53:08.231Z,2.4
2016-04-23T23:56:18.176Z,2.3
2016-04-23T23:59:31.781Z,2.4
